Solea — DBFI — position and weather

sailwx.info

Track history (hours):
 
Tides and Currents Weather Stations Pressure Air Temp Water Temp Dewpoint Dewpoint Depression Visibility Wind Speed Wind Dir Waves Ship Positions

Oceanographic research ship Solea (Germany)

Detailed information on ship capabilities available from University of Delaware's Ocean Information Center.

Last reported at 2017-Mar-26 12:33 UTC. Time now 2017-Mar-26 13:05 UTC.
Position N 53°52' E 008°43'.

Length 72 m; draft 5.2 m.

Type: Law enforcement. MMSI: 218692000.

Date/timePositionNaut miles runAvg speedWind from/ knotsBaromVisibWave heightAir tempDewpointWater temp
2017-Mar-26 12:33N 53°52' E 008°43'0 0.0
2017-Mar-26 11:33N 53°52' E 008°43'0 0.0
2017-Mar-26 10:33N 53°52' E 008°43'0 0.0
2017-Mar-26 09:33N 53°52' E 008°43'0 0.0
2017-Mar-26 08:33N 53°52' E 008°43'0 0.0
2017-Mar-26 07:33N 53°52' E 008°43'0 0.0
2017-Mar-26 06:33N 53°52' E 008°43'0 0.0
2017-Mar-26 05:33N 53°52' E 008°43'0 0.0
2017-Mar-26 04:33N 53°52' E 008°43'0 0.0
2017-Mar-26 03:33N 53°52' E 008°43'0 0.0
2017-Mar-26 02:33N 53°52' E 008°43'0 0.0
2017-Mar-26 01:33N 53°52' E 008°43'0 0.0
2017-Mar-26 00:33N 53°52' E 008°43'0 0.0
2017-Mar-25 23:33N 53°52' E 008°43'0 0.0
2017-Mar-25 22:33N 53°52' E 008°43'0 0.0
2017-Mar-25 21:33N 53°52' E 008°43'0 0.0
2017-Mar-25 20:32N 53°52' E 008°43'0 0.0
2017-Mar-25 19:32N 53°52' E 008°43'0 0.0
2017-Mar-25 18:32N 53°52' E 008°43'0 0.0
2017-Mar-25 17:32N 53°52' E 008°43'0 0.0
2017-Mar-25 16:33N 53°52' E 008°43'0 0.0
2017-Mar-25 15:32N 53°52' E 008°43'0 0.0
2017-Mar-25 14:31N 53°52' E 008°43'0 0.0
2017-Mar-25 13:33N 53°52' E 008°43'0 0.0
2017-Mar-25 12:33N 53°52' E 008°43'0 0.0
2017-Mar-25 11:33N 53°52' E 008°43'0 0.0
2017-Mar-25 10:33N 53°52' E 008°43'0 0.0
2017-Mar-25 09:33N 53°52' E 008°43'0 0.0
2017-Mar-25 08:33N 53°52' E 008°43'0 0.0
2017-Mar-25 07:33N 53°52' E 008°43'0 0.0
2017-Mar-25 06:33N 53°52' E 008°43'0 0.0
2017-Mar-25 05:33N 53°52' E 008°43'0 0.0
2017-Mar-25 04:33N 53°52' E 008°43'0 0.0
2017-Mar-25 03:29N 53°52' E 008°43'0 0.0
2017-Mar-25 02:29N 53°52' E 008°43'0 0.0
2017-Mar-25 01:32N 53°52' E 008°43'0 0.0
2017-Mar-25 00:33N 53°52' E 008°43'0 0.0
2017-Mar-24 23:33N 53°52' E 008°43'0 0.0
2017-Mar-24 22:33N 53°52' E 008°43'0 0.0
2017-Mar-24 21:33N 53°52' E 008°43'0 0.0
2017-Mar-24 20:33N 53°52' E 008°43'0 0.0
2017-Mar-24 19:33N 53°52' E 008°43'0 0.0
2017-Mar-24 18:33N 53°52' E 008°43'0 0.0
2017-Mar-24 17:33N 53°52' E 008°43'0 0.0
2017-Mar-24 14:31N 53°52' E 008°43'0 0.0
2017-Mar-24 13:23N 53°52' E 008°43'0 0.0
2017-Mar-24 12:27N 53°52' E 008°43'0 0.0
2017-Mar-24 11:33N 53°52' E 008°43'0 0.0
2017-Mar-24 10:33N 53°52' E 008°43'7 7.4
2017-Mar-24 09:33N 53°58' E 008°35'1210.7
2017-Mar-24 08:28N 53°59' E 008°15'1011.2
2017-Mar-24 07:33N 53°57' E 007°58'1312.4
2017-Mar-24 06:31N 53°55' E 007°37'6 5.6
2017-Mar-24 05:31N 53°50' E 007°32'  
2017-Mar-19 16:13N 54°12' E 005°33'6 8.6
2017-Mar-19 15:33N 54°09' E 005°25'69 9.9
2017-Mar-19 08:32N 53°07' E 004°32'22 5.5
2017-Mar-19 04:32N 52°47' E 004°19'10 9.8
2017-Mar-19 03:33N 52°43' E 004°33'1 0.5
2017-Mar-19 02:33N 52°43' E 004°34'0 0.3
2017-Mar-19 01:33N 52°44' E 004°34'1 1.4
2017-Mar-19 00:33N 52°42' E 004°35'0 0.5
2017-Mar-18 23:33N 52°43' E 004°35'1 0.6
2017-Mar-18 22:33N 52°43' E 004°35'2 2.2
2017-Mar-18 21:33N 52°45' E 004°36'2 1.6
2017-Mar-18 20:33N 52°44' E 004°35'0 0.5
2017-Mar-18 19:33N 52°44' E 004°34'2 1.6
2017-Mar-18 18:33N 52°45' E 004°36'2 2.1
2017-Mar-18 17:33N 52°43' E 004°34'1 0.8
2017-Mar-18 16:33N 52°42' E 004°34'2 2.4
2017-Mar-18 15:33N 52°40' E 004°32'1 1.0
2017-Mar-18 14:34N 52°41' E 004°33'1 1.2
2017-Mar-18 13:33N 52°42' E 004°33'2 1.9
2017-Mar-18 12:33N 52°41' E 004°34'1 0.9
2017-Mar-18 11:33N 52°41' E 004°34'1 0.5
2017-Mar-18 10:33N 52°42' E 004°33'7 7.2
2017-Mar-18 09:33N 52°43' E 004°21'10 4.9
2017-Mar-18 07:28N 52°46' E 004°05'5 5.0
2017-Mar-18 06:33N 52°43' E 004°10'4 3.5
2017-Mar-18 05:33N 52°42' E 004°16'3 3.2
2017-Mar-18 04:33N 52°43' E 004°21'3 3.1
2017-Mar-18 03:33N 52°42' E 004°26'4 4.3
2017-Mar-18 02:33N 52°42' E 004°33'6 5.8
2017-Mar-18 01:33N 52°41' E 004°24'4 4.3
2017-Mar-18 00:33N 52°42' E 004°31'2 2.1
2017-Mar-17 23:33N 52°43' E 004°34'5 5.0
2017-Mar-17 22:33N 52°47' E 004°32'6 6.1
2017-Mar-17 21:34N 52°41' E 004°31'6 6.1
2017-Mar-17 20:33N 52°47' E 004°33'3 2.6
2017-Mar-17 19:34N 52°45' E 004°34'3 3.1
2017-Mar-17 18:33N 52°42' E 004°34'5 5.4
2017-Mar-17 17:34N 52°47' E 004°32'4 3.8
2017-Mar-17 16:33N 52°43' E 004°34'2 2.4
2017-Mar-17 15:33N 52°41' E 004°35'4 3.5
2017-Mar-17 14:33N 52°41' E 004°30'4 4.1
2017-Mar-17 13:33N 52°44' E 004°35'9 8.8
2017-Mar-17 12:33N 52°51' E 004°28'48 8.0
2017-Mar-17 06:32N 53°39' E 004°44'8 8.4
2017-Mar-17 05:33N 53°44' E 004°54'  
Track history (hours):
 
Tides and Currents Weather Stations Pressure Air Temp Water Temp Dewpoint Dewpoint Depression Visibility Wind Speed Wind Dir Waves Ship Positions

Oceanographic research ship Solea (Germany)

Detailed information on ship capabilities available from University of Delaware's Ocean Information Center.

Last reported at 2017-Mar-26 12:33 UTC. Time now 2017-Mar-26 13:05 UTC.
Position N 53°52' E 008°43'.

Length 72 m; draft 5.2 m.

Type: Law enforcement. MMSI: 218692000.

Date/timePositionNaut miles runAvg speedWind from/ knotsBaromVisibWave heightAir tempDewpointWater temp
2017-Mar-26 12:33N 53°52' E 008°43'0 0.0
2017-Mar-26 11:33N 53°52' E 008°43'0 0.0
2017-Mar-26 10:33N 53°52' E 008°43'0 0.0
2017-Mar-26 09:33N 53°52' E 008°43'0 0.0
2017-Mar-26 08:33N 53°52' E 008°43'0 0.0
2017-Mar-26 07:33N 53°52' E 008°43'0 0.0
2017-Mar-26 06:33N 53°52' E 008°43'0 0.0
2017-Mar-26 05:33N 53°52' E 008°43'0 0.0
2017-Mar-26 04:33N 53°52' E 008°43'0 0.0
2017-Mar-26 03:33N 53°52' E 008°43'0 0.0
2017-Mar-26 02:33N 53°52' E 008°43'0 0.0
2017-Mar-26 01:33N 53°52' E 008°43'0 0.0
2017-Mar-26 00:33N 53°52' E 008°43'0 0.0
2017-Mar-25 23:33N 53°52' E 008°43'0 0.0
2017-Mar-25 22:33N 53°52' E 008°43'0 0.0
2017-Mar-25 21:33N 53°52' E 008°43'0 0.0
2017-Mar-25 20:32N 53°52' E 008°43'0 0.0
2017-Mar-25 19:32N 53°52' E 008°43'0 0.0
2017-Mar-25 18:32N 53°52' E 008°43'0 0.0
2017-Mar-25 17:32N 53°52' E 008°43'0 0.0
2017-Mar-25 16:33N 53°52' E 008°43'0 0.0
2017-Mar-25 15:32N 53°52' E 008°43'0 0.0
2017-Mar-25 14:31N 53°52' E 008°43'0 0.0
2017-Mar-25 13:33N 53°52' E 008°43'0 0.0
2017-Mar-25 12:33N 53°52' E 008°43'0 0.0
2017-Mar-25 11:33N 53°52' E 008°43'0 0.0
2017-Mar-25 10:33N 53°52' E 008°43'0 0.0
2017-Mar-25 09:33N 53°52' E 008°43'0 0.0
2017-Mar-25 08:33N 53°52' E 008°43'0 0.0
2017-Mar-25 07:33N 53°52' E 008°43'0 0.0
2017-Mar-25 06:33N 53°52' E 008°43'0 0.0
2017-Mar-25 05:33N 53°52' E 008°43'0 0.0
2017-Mar-25 04:33N 53°52' E 008°43'0 0.0
2017-Mar-25 03:29N 53°52' E 008°43'0 0.0
2017-Mar-25 02:29N 53°52' E 008°43'0 0.0
2017-Mar-25 01:32N 53°52' E 008°43'0 0.0
2017-Mar-25 00:33N 53°52' E 008°43'0 0.0
2017-Mar-24 23:33N 53°52' E 008°43'0 0.0
2017-Mar-24 22:33N 53°52' E 008°43'0 0.0
2017-Mar-24 21:33N 53°52' E 008°43'0 0.0
2017-Mar-24 20:33N 53°52' E 008°43'0 0.0
2017-Mar-24 19:33N 53°52' E 008°43'0 0.0
2017-Mar-24 18:33N 53°52' E 008°43'0 0.0
2017-Mar-24 17:33N 53°52' E 008°43'0 0.0
2017-Mar-24 14:31N 53°52' E 008°43'0 0.0
2017-Mar-24 13:23N 53°52' E 008°43'0 0.0
2017-Mar-24 12:27N 53°52' E 008°43'0 0.0
2017-Mar-24 11:33N 53°52' E 008°43'0 0.0
2017-Mar-24 10:33N 53°52' E 008°43'7 7.4
2017-Mar-24 09:33N 53°58' E 008°35'1210.7
2017-Mar-24 08:28N 53°59' E 008°15'1011.2
2017-Mar-24 07:33N 53°57' E 007°58'1312.4
2017-Mar-24 06:31N 53°55' E 007°37'6 5.6
2017-Mar-24 05:31N 53°50' E 007°32'  
2017-Mar-19 16:13N 54°12' E 005°33'6 8.6
2017-Mar-19 15:33N 54°09' E 005°25'69 9.9
2017-Mar-19 08:32N 53°07' E 004°32'22 5.5
2017-Mar-19 04:32N 52°47' E 004°19'10 9.8
2017-Mar-19 03:33N 52°43' E 004°33'1 0.5
2017-Mar-19 02:33N 52°43' E 004°34'0 0.3
2017-Mar-19 01:33N 52°44' E 004°34'1 1.4
2017-Mar-19 00:33N 52°42' E 004°35'0 0.5
2017-Mar-18 23:33N 52°43' E 004°35'1 0.6
2017-Mar-18 22:33N 52°43' E 004°35'2 2.2
2017-Mar-18 21:33N 52°45' E 004°36'2 1.6
2017-Mar-18 20:33N 52°44' E 004°35'0 0.5
2017-Mar-18 19:33N 52°44' E 004°34'2 1.6
2017-Mar-18 18:33N 52°45' E 004°36'2 2.1
2017-Mar-18 17:33N 52°43' E 004°34'1 0.8
2017-Mar-18 16:33N 52°42' E 004°34'2 2.4
2017-Mar-18 15:33N 52°40' E 004°32'1 1.0
2017-Mar-18 14:34N 52°41' E 004°33'1 1.2
2017-Mar-18 13:33N 52°42' E 004°33'2 1.9
2017-Mar-18 12:33N 52°41' E 004°34'1 0.9
2017-Mar-18 11:33N 52°41' E 004°34'1 0.5
2017-Mar-18 10:33N 52°42' E 004°33'7 7.2
2017-Mar-18 09:33N 52°43' E 004°21'10 4.9
2017-Mar-18 07:28N 52°46' E 004°05'5 5.0
2017-Mar-18 06:33N 52°43' E 004°10'4 3.5
2017-Mar-18 05:33N 52°42' E 004°16'3 3.2
2017-Mar-18 04:33N 52°43' E 004°21'3 3.1
2017-Mar-18 03:33N 52°42' E 004°26'4 4.3
2017-Mar-18 02:33N 52°42' E 004°33'6 5.8
2017-Mar-18 01:33N 52°41' E 004°24'4 4.3
2017-Mar-18 00:33N 52°42' E 004°31'2 2.1
2017-Mar-17 23:33N 52°43' E 004°34'5 5.0
2017-Mar-17 22:33N 52°47' E 004°32'6 6.1
2017-Mar-17 21:34N 52°41' E 004°31'6 6.1
2017-Mar-17 20:33N 52°47' E 004°33'3 2.6
2017-Mar-17 19:34N 52°45' E 004°34'3 3.1
2017-Mar-17 18:33N 52°42' E 004°34'5 5.4
2017-Mar-17 17:34N 52°47' E 004°32'4 3.8
2017-Mar-17 16:33N 52°43' E 004°34'2 2.4
2017-Mar-17 15:33N 52°41' E 004°35'4 3.5
2017-Mar-17 14:33N 52°41' E 004°30'4 4.1
2017-Mar-17 13:33N 52°44' E 004°35'9 8.8
2017-Mar-17 12:33N 52°51' E 004°28'48 8.0
2017-Mar-17 06:32N 53°39' E 004°44'8 8.4
2017-Mar-17 05:33N 53°44' E 004°54'  

Dump ship's entire track history